Time;durP1;ratioP1;P1;durP2;ratioP2;P2;SDS_P1;SDS_P2;PMS_P1;PMS_P2;Temp;Humidity;BMP_temperature;BMP_pressure;BME280_temperature;BME280_humidity;BME280_pressure;Samples;Min_cycle;Max_cycle;Signal;HPM_P1;HPM_P2
2023/05/05 00:04:07;;;;;;;3.30;3.00;;;16.10;82.70;;;;;;10472253;28;20353;-73
2023/05/05 00:09:08;;;;;;;5.20;3.63;;;16.10;84.10;;;;;;10469222;28;20360;-72
2023/05/05 00:14:08;;;;;;;6.60;3.90;;;16.10;85.60;;;;;;10467006;28;20226;-71
2023/05/05 00:19:09;;;;;;;5.00;3.50;;;16.00;87.00;;;;;;10472994;28;20223;-72
2023/05/05 00:24:09;;;;;;;4.67;3.20;;;15.80;88.40;;;;;;10463892;28;20214;-73
2023/05/05 00:29:10;;;;;;;7.57;3.67;;;15.70;89.90;;;;;;10468547;28;20249;-75
2023/05/05 00:34:11;;;;;;;5.50;4.00;;;15.60;90.30;;;;;;10472465;28;20214;-73
2023/05/05 00:39:11;;;;;;;3.90;3.50;;;15.50;90.80;;;;;;10472099;28;20218;-73
2023/05/05 00:44:12;;;;;;;7.33;3.90;;;15.30;91.40;;;;;;10469153;28;20428;-74
2023/05/05 00:49:15;;;;;;;5.30;3.67;;;15.10;91.90;;;;;;10467842;28;20226;-72
2023/05/05 00:54:15;;;;;;;4.87;3.57;;;15.00;92.40;;;;;;10480489;28;20247;-72
2023/05/05 00:59:16;;;;;;;6.30;4.03;;;15.00;92.90;;;;;;10466477;28;20240;-70
2023/05/05 01:04:20;;;;;;;8.00;4.00;;;15.00;93.90;;;;;;10476974;28;20228;-71
2023/05/05 01:09:30;;;;;;;6.93;4.40;;;15.00;94.60;;;;;;10469394;28;20229;-72
2023/05/05 01:14:46;;;;;;;4.27;3.87;;;15.10;95.40;;;;;;10470984;28;20312;-75
2023/05/05 01:19:52;;;;;;;5.07;4.20;;;15.20;95.90;;;;;;10470626;28;20207;-76
2023/05/05 01:25:17;;;;;;;6.13;4.27;;;15.20;96.40;;;;;;10468671;28;20252;-71
2023/05/05 01:30:26;;;;;;;5.53;4.33;;;15.10;97.30;;;;;;10480103;28;20223;-71
2023/05/05 01:35:31;;;;;;;7.23;5.00;;;15.00;97.60;;;;;;10465355;28;20247;-71
2023/05/05 01:40:37;;;;;;;5.70;4.67;;;14.90;98.00;;;;;;10478327;28;20312;-72
2023/05/05 01:45:43;;;;;;;5.93;4.30;;;14.90;97.20;;;;;;10485482;28;20961;-74
2023/05/05 01:50:46;;;;;;;4.83;4.43;;;14.90;96.50;;;;;;10471765;28;20234;-74
2023/05/05 01:55:49;;;;;;;4.53;4.10;;;15.00;96.70;;;;;;10477403;28;20226;-74
2023/05/05 02:00:51;;;;;;;5.20;4.67;;;15.00;97.80;;;;;;10478442;28;20663;-74
2023/05/05 02:05:57;;;;;;;4.90;4.47;;;14.90;98.70;;;;;;10476804;28;20219;-73
2023/05/05 02:10:58;;;;;;;5.10;4.70;;;14.70;99.90;;;;;;10468687;28;20246;-71
2023/05/05 02:15:59;;;;;;;5.27;4.77;;;14.60;99.90;;;;;;10487388;28;20226;-74
2023/05/05 02:20:59;;;;;;;4.90;4.50;;;14.50;99.90;;;;;;10475561;28;20220;-77
2023/05/05 02:26:05;;;;;;;5.07;4.13;;;14.40;99.90;;;;;;10472602;28;20237;-75
2023/05/05 02:31:08;;;;;;;4.40;4.00;;;14.30;99.90;;;;;;10468924;28;20801;-73
2023/05/05 02:36:29;;;;;;;5.60;4.13;;;14.40;99.90;;;;;;10479166;28;20704;-74
2023/05/05 02:41:34;;;;;;;4.97;4.27;;;14.40;99.90;;;;;;10475014;28;20260;-71
2023/05/05 02:46:37;;;;;;;4.83;4.30;;;14.50;99.90;;;;;;10475937;28;20627;-71
2023/05/05 02:51:38;;;;;;;5.47;4.30;;;14.40;99.90;;;;;;10474383;28;20228;-72
2023/05/05 02:56:47;;;;;;;8.60;4.13;;;14.40;99.90;;;;;;10477217;28;20224;-74
2023/05/05 03:02:02;;;;;;;4.33;3.93;;;14.40;99.90;;;;;;10467997;28;20287;-74
2023/05/05 03:07:10;;;;;;;5.73;3.90;;;14.30;99.90;;;;;;10466878;28;20754;-74
2023/05/05 03:12:19;;;;;;;6.13;4.33;;;14.30;99.90;;;;;;10474851;28;20302;-73
2023/05/05 03:17:21;;;;;;;4.70;4.30;;;14.40;99.90;;;;;;10479602;28;20239;-74
2023/05/05 03:22:22;;;;;;;5.10;4.57;;;14.40;99.90;;;;;;10472516;28;20310;-74
2023/05/05 03:27:22;;;;;;;4.93;4.43;;;14.40;99.90;;;;;;10474334;28;20310;-73
2023/05/05 03:32:23;;;;;;;6.43;4.87;;;14.40;99.90;;;;;;10467797;28;20220;-75
2023/05/05 03:37:23;;;;;;;6.83;5.17;;;14.40;99.90;;;;;;10472223;28;20302;-72
2023/05/05 03:42:24;;;;;;;5.63;5.03;;;14.30;99.90;;;;;;10473658;28;20269;-70
2023/05/05 03:47:27;;;;;;;6.13;5.47;;;14.10;99.90;;;;;;10480738;28;20254;-72
2023/05/05 03:52:28;;;;;;;6.57;5.60;;;14.00;99.90;;;;;;10487254;28;20314;-72
2023/05/05 03:57:29;;;;;;;5.63;5.03;;;13.90;99.90;;;;;;10466276;28;20318;-70
2023/05/05 04:02:29;;;;;;;5.40;4.90;;;13.80;99.90;;;;;;10471571;28;20581;-74
2023/05/05 04:07:30;;;;;;;7.33;5.40;;;13.80;99.90;;;;;;10465346;28;20251;-76
2023/05/05 04:12:30;;;;;;;6.77;5.30;;;13.80;99.90;;;;;;10470474;28;20276;-71
2023/05/05 04:17:31;;;;;;;6.67;5.90;;;13.80;99.90;;;;;;10464777;28;20346;-72
2023/05/05 04:22:31;;;;;;;5.60;5.10;;;13.90;99.90;;;;;;10468516;28;20227;-71
2023/05/05 04:27:33;;;;;;;8.10;5.73;;;14.00;99.90;;;;;;10464210;28;20445;-72
2023/05/05 04:32:33;;;;;;;8.23;5.93;;;14.10;99.90;;;;;;10469280;28;20219;-73
2023/05/05 04:37:34;;;;;;;7.93;6.10;;;14.10;99.90;;;;;;10479362;28;20282;-73
2023/05/05 04:42:35;;;;;;;10.10;5.83;;;14.20;99.90;;;;;;10463761;28;20227;-73
2023/05/05 04:47:37;;;;;;;9.33;5.63;;;14.30;99.90;;;;;;10481914;28;20230;-72
2023/05/05 04:52:38;;;;;;;11.27;6.63;;;14.40;99.90;;;;;;10461104;28;20219;-72
2023/05/05 04:57:38;;;;;;;7.67;5.67;;;14.60;99.90;;;;;;10461459;28;20227;-72
2023/05/05 05:02:40;;;;;;;7.03;5.60;;;15.10;99.90;;;;;;10475602;28;20246;-74
2023/05/05 05:07:40;;;;;;;8.07;5.63;;;15.50;99.90;;;;;;10479398;28;20694;-77
2023/05/05 05:12:41;;;;;;;6.43;5.20;;;15.80;99.90;;;;;;10476476;28;20217;-74
2023/05/05 05:17:41;;;;;;;6.00;5.40;;;16.10;99.90;;;;;;10469200;28;20285;-71
2023/05/05 05:22:42;;;;;;;6.03;5.23;;;16.50;99.90;;;;;;10478904;28;20234;-72
2023/05/05 05:27:43;;;;;;;11.83;6.00;;;17.10;99.90;;;;;;10477623;28;20245;-75
2023/05/05 05:32:43;;;;;;;9.63;5.83;;;17.50;99.90;;;;;;10470044;28;20223;-73
2023/05/05 05:37:46;;;;;;;7.77;5.57;;;17.60;99.90;;;;;;10475673;28;20728;-73
2023/05/05 05:42:47;;;;;;;9.23;5.57;;;17.60;99.90;;;;;;10476415;28;20303;-74
2023/05/05 05:47:48;;;;;;;9.37;5.50;;;17.70;99.90;;;;;;10472366;28;20222;-74
2023/05/05 05:52:48;;;;;;;7.13;5.00;;;18.10;99.90;;;;;;10477144;28;20227;-75
2023/05/05 05:57:49;;;;;;;6.47;5.17;;;18.40;99.90;;;;;;10476930;28;20220;-74
2023/05/05 06:02:50;;;;;;;7.57;5.30;;;18.70;99.90;;;;;;10472178;28;20698;-74
2023/05/05 06:07:50;;;;;;;7.07;4.70;;;19.70;99.90;;;;;;10468450;28;20239;-74
2023/05/05 06:12:51;;;;;;;4.70;4.20;;;23.10;96.50;;;;;;10473825;28;20284;-75
2023/05/05 06:17:52;;;;;;;6.37;4.90;;;25.10;89.20;;;;;;10468589;28;20256;-74
2023/05/05 06:22:52;;;;;;;8.80;4.83;;;25.90;80.60;;;;;;10474834;28;20218;-75
2023/05/05 06:27:53;;;;;;;8.63;4.57;;;26.10;77.70;;;;;;10469051;28;20244;-74
2023/05/05 06:32:54;;;;;;;6.63;4.77;;;27.60;72.10;;;;;;10477789;28;20523;-69
2023/05/05 06:37:54;;;;;;;6.90;4.77;;;28.60;66.20;;;;;;10468863;28;20220;-69
2023/05/05 06:42:55;;;;;;;15.00;6.10;;;28.10;64.50;;;;;;10483380;28;20235;-73
2023/05/05 06:47:55;;;;;;;9.47;4.67;;;28.00;67.00;;;;;;10477724;28;20231;-75
2023/05/05 06:52:56;;;;;;;5.10;4.17;;;28.20;63.50;;;;;;10480692;28;20223;-75
2023/05/05 06:57:59;;;;;;;6.40;4.10;;;27.70;65.20;;;;;;10469365;28;20722;-75
2023/05/05 07:03:00;;;;;;;5.90;3.97;;;28.10;64.00;;;;;;10470509;28;20250;-75
2023/05/05 07:08:01;;;;;;;8.47;3.80;;;28.90;61.10;;;;;;10465573;28;20232;-75
2023/05/05 07:13:01;;;;;;;6.03;4.40;;;29.40;59.90;;;;;;10468801;28;20219;-75
2023/05/05 07:18:02;;;;;;;8.17;4.37;;;30.10;57.70;;;;;;10476573;28;20228;-75
2023/05/05 07:23:02;;;;;;;6.53;4.10;;;30.50;57.40;;;;;;10471934;28;20243;-75
2023/05/05 07:28:03;;;;;;;3.83;3.40;;;31.40;55.10;;;;;;10467298;28;20693;-75
2023/05/05 07:33:04;;;;;;;5.63;3.67;;;32.60;53.90;;;;;;10469277;28;20695;-75
2023/05/05 07:38:05;;;;;;;4.27;3.07;;;34.20;49.50;;;;;;10468953;28;20284;-75
2023/05/05 07:43:07;;;;;;;4.80;3.50;;;35.20;47.80;;;;;;10468273;28;20239;-76
2023/05/05 07:48:07;;;;;;;8.43;3.70;;;35.40;45.90;;;;;;10469458;28;20612;-77
2023/05/05 07:53:08;;;;;;;9.03;3.23;;;35.20;45.50;;;;;;10467626;28;20748;-75
2023/05/05 07:58:09;;;;;;;5.67;3.40;;;35.90;45.00;;;;;;10472854;28;20222;-76
2023/05/05 08:03:10;;;;;;;9.60;3.40;;;36.00;44.00;;;;;;10467423;28;20674;-74
2023/05/05 08:08:10;;;;;;;5.37;3.47;;;34.40;45.30;;;;;;10474622;28;20223;-75
2023/05/05 08:13:11;;;;;;;5.93;3.87;;;33.50;47.50;;;;;;10469197;28;20309;-74
2023/05/05 08:18:15;;;;;;;23.63;4.47;;;32.90;47.90;;;;;;10467860;28;20251;-74
2023/05/05 08:23:16;;;;;;;4.10;3.33;;;32.00;49.70;;;;;;10468309;28;20226;-75
2023/05/05 08:28:16;;;;;;;6.63;3.70;;;32.90;49.70;;;;;;10474662;28;20235;-75
2023/05/05 08:33:17;;;;;;;4.73;3.20;;;35.30;46.50;;;;;;10469046;28;20214;-75
2023/05/05 08:38:18;;;;;;;5.17;4.03;;;37.60;43.00;;;;;;10484744;28;20223;-76
2023/05/05 08:43:21;;;;;;;6.03;3.80;;;39.10;40.20;;;;;;10474635;28;20604;-76
2023/05/05 08:48:24;;;;;;;4.30;3.53;;;39.00;39.50;;;;;;10470481;28;20743;-74
2023/05/05 08:53:53;;;;;;;6.27;3.50;;;37.10;41.40;;;;;;10473044;28;20227;-74
2023/05/05 08:58:55;;;;;;;6.10;3.27;;;36.30;42.90;;;;;;10465492;28;20316;-73
2023/05/05 09:03:57;;;;;;;4.77;3.50;;;36.70;43.10;;;;;;10471240;28;20682;-74
2023/05/05 09:08:59;;;;;;;6.73;3.30;;;36.90;42.20;;;;;;10470060;28;20231;-73
2023/05/05 09:14:00;;;;;;;5.33;3.30;;;37.70;41.50;;;;;;10479084;28;20219;-74
2023/05/05 09:19:03;;;;;;;4.27;3.10;;;38.60;39.50;;;;;;10467244;28;20220;-72
2023/05/05 09:24:10;;;;;;;4.80;2.80;;;39.00;38.20;;;;;;10464308;28;20231;-78
2023/05/05 09:29:21;;;;;;;7.63;3.80;;;39.90;38.20;;;;;;10465305;28;20239;-76
2023/05/05 09:34:21;;;;;;;4.13;2.60;;;40.90;36.20;;;;;;10467960;28;20224;-75
2023/05/05 09:39:22;;;;;;;9.73;2.40;;;41.80;34.90;;;;;;10463974;28;20683;-73
2023/05/05 09:44:36;;;;;;;3.10;2.15;;;42.60;32.60;;;;;;10467142;28;20220;-75
2023/05/05 09:49:37;;;;;;;2.85;2.10;;;42.60;31.90;;;;;;10474375;28;20231;-75
2023/05/05 09:54:45;;;;;;;12.00;2.95;;;43.10;30.70;;;;;;10469240;28;20211;-75
2023/05/05 09:59:59;;;;;;;24.17;3.60;;;43.10;30.30;;;;;;10474785;28;20218;-76
2023/05/05 10:05:19;;;;;;;3.47;2.40;;;41.00;32.40;;;;;;10473662;28;20216;-75
2023/05/05 10:10:20;;;;;;;4.80;2.87;;;39.40;34.60;;;;;;10489104;28;20256;-74
2023/05/05 10:15:21;;;;;;;3.40;2.50;;;40.20;34.20;;;;;;10469936;28;20733;-73
2023/05/05 10:20:23;;;;;;;6.33;2.30;;;41.40;32.40;;;;;;10481134;28;20184;-73
2023/05/05 10:25:49;;;;;;;4.17;2.27;;;42.20;30.90;;;;;;10468382;28;20269;-72
2023/05/05 10:30:53;;;;;;;7.70;2.27;;;42.00;31.20;;;;;;10475242;28;20223;-73
2023/05/05 10:35:58;;;;;;;3.50;2.10;;;41.10;32.00;;;;;;10471961;28;20215;-73
2023/05/05 10:41:00;;;;;;;6.97;2.37;;;39.10;34.20;;;;;;10488167;28;20238;-72
2023/05/05 10:46:01;;;;;;;4.97;1.50;;;38.90;34.00;;;;;;10472826;28;20231;-72
2023/05/05 10:51:16;;;;;;;4.43;1.87;;;38.00;33.70;;;;;;10475080;28;20218;-73
2023/05/05 10:56:44;;;;;;;4.87;1.83;;;38.20;34.60;;;;;;10472164;28;20221;-73
2023/05/05 11:01:44;;;;;;;5.47;1.80;;;37.30;35.50;;;;;;10463408;28;20227;-73
2023/05/05 11:07:06;;;;;;;6.43;1.30;;;36.50;37.00;;;;;;10465283;28;20223;-73
2023/05/05 11:12:08;;;;;;;3.43;1.03;;;36.60;35.50;;;;;;10475736;28;20216;-74
2023/05/05 11:17:44;;;;;;;5.53;1.07;;;36.60;33.80;;;;;;10474994;28;20218;-73
2023/05/05 11:23:03;;;;;;;10.20;1.53;;;36.70;34.60;;;;;;10466991;28;20220;-74
2023/05/05 11:28:09;;;;;;;1.50;0.87;;;38.10;33.50;;;;;;10470650;28;20235;-73
2023/05/05 11:33:31;;;;;;;2.37;1.10;;;40.00;31.30;;;;;;10469329;28;20585;-74
2023/05/05 11:38:51;;;;;;;6.13;0.90;;;40.30;29.60;;;;;;10465290;28;20726;-74
2023/05/05 11:44:11;;;;;;;3.60;0.80;;;39.60;30.00;;;;;;10464526;28;20310;-73
2023/05/05 11:49:25;;;;;;;3.77;0.90;;;36.70;34.40;;;;;;10477075;28;20229;-74
2023/05/05 11:54:27;;;;;;;4.87;1.17;;;34.20;37.70;;;;;;10474294;28;20220;-74
2023/05/05 11:59:27;;;;;;;4.67;1.07;;;32.30;40.00;;;;;;10473829;28;20631;-74
2023/05/05 12:04:30;;;;;;;3.77;1.00;;;31.00;41.60;;;;;;10472792;28;20219;-72
2023/05/05 12:09:31;;;;;;;4.30;1.00;;;30.00;43.20;;;;;;10471272;28;20590;-72
2023/05/05 12:14:33;;;;;;;2.57;1.10;;;29.40;44.60;;;;;;10465772;28;20215;-71
2023/05/05 12:19:34;;;;;;;4.97;1.13;;;29.00;45.00;;;;;;10469823;28;20219;-72
2023/05/05 12:24:38;;;;;;;3.60;1.20;;;29.00;43.80;;;;;;10464164;28;20310;-73
2023/05/05 12:29:39;;;;;;;3.73;1.13;;;29.20;42.10;;;;;;10469966;28;20247;-75
2023/05/05 12:34:40;;;;;;;1.50;0.97;;;29.20;43.90;;;;;;10480975;28;20238;-72
2023/05/05 12:39:44;;;;;;;2.00;1.00;;;29.20;41.70;;;;;;10470980;28;20364;-73
2023/05/05 12:44:45;;;;;;;7.77;1.17;;;28.90;43.30;;;;;;10477023;28;20334;-72
2023/05/05 12:49:49;;;;;;;2.97;1.07;;;29.10;42.60;;;;;;10455312;28;20219;-73
2023/05/05 12:54:57;;;;;;;2.83;1.30;;;29.20;42.70;;;;;;10485355;28;20246;-74
2023/05/05 13:00:11;;;;;;;1.70;0.70;;;29.60;42.00;;;;;;10465742;28;20224;-73
2023/05/05 13:05:11;;;;;;;2.03;0.80;;;29.70;40.50;;;;;;10478451;28;20215;-73
2023/05/05 13:10:12;;;;;;;4.33;1.70;;;29.60;42.00;;;;;;10473985;28;20183;-73
2023/05/05 13:15:13;;;;;;;10.70;2.43;;;29.20;42.00;;;;;;10467452;28;20218;-72
2023/05/05 13:20:13;;;;;;;4.90;1.20;;;29.00;42.70;;;;;;10465609;28;20616;-73
2023/05/05 13:25:14;;;;;;;2.00;0.90;;;28.90;41.70;;;;;;10490459;28;20309;-73
2023/05/05 13:30:15;;;;;;;2.83;1.07;;;29.00;42.30;;;;;;10481369;28;20875;-73
2023/05/05 13:35:15;;;;;;;1.07;0.67;;;29.00;41.80;;;;;;10478480;28;20274;-72
2023/05/05 13:40:16;;;;;;;5.33;0.93;;;28.90;40.80;;;;;;10468797;28;20192;-73
2023/05/05 13:45:19;;;;;;;3.97;1.20;;;28.60;41.50;;;;;;10471874;28;20184;-72
2023/05/05 13:50:20;;;;;;;3.80;0.87;;;28.50;40.90;;;;;;10479955;28;20184;-72
2023/05/05 13:55:21;;;;;;;1.33;0.70;;;28.40;40.80;;;;;;10473525;28;20658;-73
2023/05/05 14:00:21;;;;;;;4.47;1.00;;;28.40;41.60;;;;;;10485522;28;20198;-72
2023/05/05 14:05:22;;;;;;;1.97;1.07;;;28.40;40.60;;;;;;10467839;28;20176;-72
2023/05/05 14:10:24;;;;;;;3.67;0.97;;;28.80;41.10;;;;;;10474961;28;20182;-72
2023/05/05 14:15:25;;;;;;;4.20;0.80;;;29.10;40.90;;;;;;10476379;28;20215;-72
2023/05/05 14:20:26;;;;;;;0.70;0.70;;;29.10;40.00;;;;;;10469916;28;20220;-71
2023/05/05 14:25:27;;;;;;;10.10;1.03;;;28.90;40.80;;;;;;10475409;28;20259;-72
2023/05/05 14:30:27;;;;;;;2.37;0.73;;;28.60;41.20;;;;;;10468980;28;20220;-73
2023/05/05 14:35:29;;;;;;;3.03;0.70;;;28.40;42.00;;;;;;10475828;28;20298;-72
2023/05/05 14:40:30;;;;;;;11.60;1.20;;;28.30;41.90;;;;;;10489686;28;20225;-73
2023/05/05 14:45:31;;;;;;;1.97;0.90;;;28.20;41.60;;;;;;10471669;28;20818;-72
2023/05/05 14:50:31;;;;;;;1.40;0.70;;;27.70;42.40;;;;;;10481924;28;20221;-73
2023/05/05 14:55:32;;;;;;;1.47;0.70;;;27.40;42.40;;;;;;10468446;28;20274;-73
2023/05/05 15:00:33;;;;;;;2.87;0.90;;;27.20;44.10;;;;;;10473053;28;20211;-73
2023/05/05 15:05:34;;;;;;;4.83;0.77;;;27.10;43.80;;;;;;10474207;28;20211;-72
2023/05/05 15:10:34;;;;;;;0.80;0.80;;;26.80;44.80;;;;;;10474868;28;20232;-72
2023/05/05 15:15:35;;;;;;;1.57;0.80;;;26.50;46.30;;;;;;10465442;28;20293;-72
2023/05/05 15:20:35;;;;;;;3.17;0.90;;;26.10;47.60;;;;;;10473453;28;20288;-72
2023/05/05 15:25:39;;;;;;;3.80;1.23;;;25.70;48.90;;;;;;10482000;28;20226;-73
2023/05/05 15:30:39;;;;;;;1.27;0.87;;;25.20;49.90;;;;;;10465245;28;20219;-72
2023/05/05 15:35:40;;;;;;;6.80;1.00;;;25.00;50.30;;;;;;10473176;28;20249;-72
2023/05/05 15:40:43;;;;;;;3.43;0.80;;;24.80;50.70;;;;;;10473732;28;20729;-72
2023/05/05 15:45:46;;;;;;;8.47;1.00;;;24.60;52.30;;;;;;10487002;28;20211;-73
2023/05/05 15:50:47;;;;;;;5.73;1.10;;;24.30;54.30;;;;;;10472310;28;20226;-72
2023/05/05 15:55:47;;;;;;;4.80;0.90;;;24.00;56.20;;;;;;10464773;28;20220;-73
2023/05/05 16:00:48;;;;;;;2.63;1.00;;;23.90;57.30;;;;;;10475086;28;20223;-72
2023/05/05 16:05:48;;;;;;;2.33;0.90;;;23.80;57.30;;;;;;10474582;28;20223;-73
2023/05/05 16:10:49;;;;;;;1.13;0.57;;;23.50;57.80;;;;;;10465280;28;20216;-72
2023/05/05 16:15:49;;;;;;;1.07;0.60;;;23.20;58.30;;;;;;10476977;28;20597;-72
2023/05/05 16:20:50;;;;;;;1.63;0.77;;;23.00;58.80;;;;;;10472180;28;20222;-71
2023/05/05 16:25:51;;;;;;;1.83;0.70;;;22.90;60.50;;;;;;10470592;28;20257;-72
2023/05/05 16:30:51;;;;;;;1.03;0.60;;;22.80;61.80;;;;;;10470829;28;20638;-71
2023/05/05 16:35:52;;;;;;;1.73;0.77;;;22.70;65.00;;;;;;10468275;28;20668;-73
2023/05/05 16:40:53;;;;;;;1.33;0.90;;;22.70;67.30;;;;;;10464975;28;20223;-72
2023/05/05 16:45:53;;;;;;;3.47;1.20;;;22.50;70.60;;;;;;10469927;28;20270;-72
2023/05/05 16:50:57;;;;;;;4.10;1.00;;;22.20;74.00;;;;;;10476414;28;20218;-72
2023/05/05 16:56:00;;;;;;;3.73;1.00;;;22.00;78.40;;;;;;10466710;28;20219;-73
2023/05/05 17:01:02;;;;;;;3.33;1.40;;;21.80;80.00;;;;;;10476259;28;20223;-72
2023/05/05 17:06:03;;;;;;;4.60;1.50;;;21.70;83.10;;;;;;10479672;28;20297;-73
2023/05/05 17:11:03;;;;;;;3.50;1.40;;;21.60;84.40;;;;;;10470361;28;20284;-73
2023/05/05 17:16:09;;;;;;;3.33;1.10;;;21.40;84.70;;;;;;10474899;28;20218;-72
2023/05/05 17:21:10;;;;;;;3.07;1.47;;;21.40;88.40;;;;;;10475469;28;20271;-73
2023/05/05 17:26:11;;;;;;;1.93;1.00;;;21.40;90.30;;;;;;10477543;28;20286;-73
2023/05/05 17:31:11;;;;;;;1.33;1.20;;;21.40;90.20;;;;;;10475466;28;20256;-72
2023/05/05 17:36:15;;;;;;;3.47;1.00;;;21.40;90.10;;;;;;10479044;28;20214;-71
2023/05/05 17:41:19;;;;;;;1.53;1.10;;;21.40;90.40;;;;;;10481597;28;20262;-72
2023/05/05 17:46:19;;;;;;;3.90;1.07;;;21.40;89.00;;;;;;10466416;28;20227;-72
2023/05/05 17:51:20;;;;;;;3.03;1.93;;;21.30;89.30;;;;;;10469988;28;20299;-73
2023/05/05 17:56:21;;;;;;;2.40;1.33;;;21.30;90.00;;;;;;10472201;28;20215;-73
2023/05/05 18:01:22;;;;;;;3.10;1.80;;;21.10;90.30;;;;;;10481876;28;20231;-72
2023/05/05 18:06:26;;;;;;;3.90;1.77;;;21.00;91.60;;;;;;10468879;28;20234;-73
2023/05/05 18:11:29;;;;;;;3.33;1.67;;;20.90;92.60;;;;;;10478236;28;20219;-72
2023/05/05 18:16:30;;;;;;;3.90;1.30;;;20.80;93.20;;;;;;10469937;28;20227;-73
2023/05/05 18:21:31;;;;;;;3.70;1.57;;;20.70;93.10;;;;;;10483286;28;20219;-72
2023/05/05 18:26:31;;;;;;;3.60;1.73;;;20.70;93.80;;;;;;10469230;28;20238;-72
2023/05/05 18:31:32;;;;;;;3.90;2.37;;;20.60;93.80;;;;;;10475066;28;20530;-72
2023/05/05 18:36:32;;;;;;;4.33;1.77;;;20.50;94.10;;;;;;10468693;28;20223;-73
2023/05/05 18:41:34;;;;;;;3.10;1.50;;;20.40;94.60;;;;;;10483264;28;20219;-73
2023/05/05 18:46:38;;;;;;;4.30;1.60;;;20.20;95.30;;;;;;10480403;28;20231;-73
2023/05/05 18:51:38;;;;;;;2.70;1.50;;;20.00;96.40;;;;;;10475419;28;20227;-73
2023/05/05 18:56:39;;;;;;;3.40;1.60;;;19.90;97.30;;;;;;10466406;28;20326;-73
2023/05/05 19:01:40;;;;;;;4.63;1.70;;;19.80;98.30;;;;;;10474241;28;20739;-73
2023/05/05 19:06:40;;;;;;;3.10;1.70;;;19.60;99.50;;;;;;10480163;28;20231;-72
2023/05/05 19:11:41;;;;;;;2.90;1.37;;;19.50;99.90;;;;;;10481897;28;20243;-72
2023/05/05 19:16:42;;;;;;;6.00;1.70;;;19.50;99.90;;;;;;10466179;28;20238;-72
2023/05/05 19:21:43;;;;;;;6.03;1.37;;;19.50;99.90;;;;;;10481819;28;20230;-72
2023/05/05 19:26:43;;;;;;;3.53;1.53;;;19.40;99.90;;;;;;10471413;28;20288;-72
2023/05/05 19:31:44;;;;;;;3.70;1.70;;;19.40;99.90;;;;;;10472201;28;20227;-73
2023/05/05 19:36:45;;;;;;;3.20;1.60;;;19.30;99.90;;;;;;10474640;28;20265;-73
2023/05/05 19:41:45;;;;;;;5.97;1.53;;;19.20;99.90;;;;;;10464362;28;20227;-72
2023/05/05 19:46:46;;;;;;;2.40;1.53;;;19.10;99.90;;;;;;10470635;28;20222;-73
2023/05/05 19:51:48;;;;;;;2.93;1.77;;;19.10;99.90;;;;;;10464868;28;20682;-72
2023/05/05 19:56:50;;;;;;;3.03;1.60;;;19.00;99.90;;;;;;10473932;28;20306;-72
2023/05/05 20:01:53;;;;;;;5.53;1.83;;;18.90;99.90;;;;;;10463969;28;20441;-73
2023/05/05 20:06:54;;;;;;;2.67;1.60;;;18.70;99.90;;;;;;10461495;28;20303;-71
2023/05/05 20:11:57;;;;;;;5.03;1.80;;;18.70;99.90;;;;;;10478493;28;20337;-73
2023/05/05 20:16:57;;;;;;;5.10;1.83;;;18.60;99.90;;;;;;10464895;28;20216;-72
2023/05/05 20:21:58;;;;;;;4.90;1.30;;;18.60;99.90;;;;;;10469062;28;20214;-72
2023/05/05 20:26:58;;;;;;;4.07;1.70;;;18.50;99.90;;;;;;10466532;28;20318;-72
2023/05/05 20:31:59;;;;;;;2.73;1.80;;;18.40;99.90;;;;;;10470996;28;20275;-71
2023/05/05 20:37:03;;;;;;;2.97;1.57;;;18.30;99.90;;;;;;10473286;28;20237;-72
2023/05/05 20:42:03;;;;;;;3.27;1.87;;;18.10;99.90;;;;;;10457123;28;20227;-71
2023/05/05 20:47:05;;;;;;;3.27;2.43;;;18.00;99.90;;;;;;10481283;28;20659;-72
2023/05/05 20:52:05;;;;;;;2.87;2.10;;;17.90;99.90;;;;;;10468603;28;20227;-72
2023/05/05 20:57:09;;;;;;;5.63;2.10;;;17.90;99.90;;;;;;10470034;28;20232;-72
2023/05/05 21:02:10;;;;;;;2.97;2.07;;;17.80;99.90;;;;;;10471278;28;20222;-73
2023/05/05 21:07:10;;;;;;;5.63;2.63;;;17.70;99.90;;;;;;10467168;28;20231;-72
2023/05/05 21:12:11;;;;;;;4.63;2.70;;;17.70;99.90;;;;;;10466961;28;20211;-72
2023/05/05 21:17:11;;;;;;;6.60;2.60;;;17.60;99.90;;;;;;10461467;28;20262;-72
2023/05/05 21:22:12;;;;;;;4.13;2.23;;;17.70;99.90;;;;;;10467263;28;20226;-71
2023/05/05 21:27:13;;;;;;;3.57;2.40;;;17.60;99.90;;;;;;10470633;28;20718;-72
2023/05/05 21:32:13;;;;;;;3.97;2.70;;;17.60;99.90;;;;;;10468943;28;20686;-73
2023/05/05 21:37:14;;;;;;;4.30;2.60;;;17.50;99.90;;;;;;10470837;28;20284;-73
2023/05/05 21:42:15;;;;;;;4.87;3.10;;;17.50;99.90;;;;;;10467184;28;20234;-71
2023/05/05 21:47:16;;;;;;;3.27;2.80;;;17.30;99.90;;;;;;10475148;28;20223;-72
2023/05/05 21:52:16;;;;;;;4.30;3.20;;;17.20;99.90;;;;;;10473596;28;20231;-72
2023/05/05 21:57:17;;;;;;;5.47;3.53;;;17.20;99.90;;;;;;10476701;28;20232;-72
2023/05/05 22:02:17;;;;;;;4.10;3.30;;;17.00;99.90;;;;;;10473078;28;20232;-72
2023/05/05 22:07:18;;;;;;;5.50;3.80;;;16.90;99.90;;;;;;10477672;28;20238;-72
2023/05/05 22:12:19;;;;;;;5.73;4.03;;;16.70;99.90;;;;;;10477450;28;20635;-73
2023/05/05 22:17:19;;;;;;;7.57;4.10;;;16.70;99.90;;;;;;10473554;28;20764;-72
2023/05/05 22:22:20;;;;;;;7.27;4.07;;;16.60;99.90;;;;;;10471642;28;20236;-72
2023/05/05 22:27:20;;;;;;;6.40;3.67;;;16.60;99.90;;;;;;10472091;28;20563;-72
2023/05/05 22:32:24;;;;;;;6.60;3.93;;;16.70;99.90;;;;;;10470826;28;20307;-72
2023/05/05 22:37:24;;;;;;;6.30;4.60;;;16.70;99.90;;;;;;10471832;28;20250;-72
2023/05/05 22:42:25;;;;;;;4.63;4.07;;;16.70;99.90;;;;;;10477986;28;20239;-72
2023/05/05 22:47:29;;;;;;;6.90;4.47;;;16.60;99.90;;;;;;10472276;28;20302;-72
2023/05/05 22:52:30;;;;;;;6.80;4.67;;;16.40;99.90;;;;;;10468960;28;20246;-72
2023/05/05 22:57:34;;;;;;;4.73;4.13;;;16.20;99.90;;;;;;10474143;28;20224;-72
2023/05/05 23:02:35;;;;;;;6.17;4.60;;;16.10;99.90;;;;;;10475816;28;20264;-72
2023/05/05 23:07:35;;;;;;;7.00;4.57;;;16.00;99.90;;;;;;10475631;28;20216;-72
2023/05/05 23:12:36;;;;;;;8.43;4.70;;;16.00;99.90;;;;;;10473515;28;20630;-73
2023/05/05 23:17:37;;;;;;;7.13;4.97;;;15.90;99.90;;;;;;10471111;28;20225;-73
2023/05/05 23:22:37;;;;;;;4.73;4.30;;;15.80;99.90;;;;;;10466436;28;20230;-71
2023/05/05 23:27:39;;;;;;;5.70;5.07;;;15.70;99.90;;;;;;10473747;28;20276;-73
2023/05/05 23:32:43;;;;;;;5.97;4.23;;;15.70;99.90;;;;;;10466256;28;20223;-72
2023/05/05 23:37:44;;;;;;;5.40;4.43;;;15.60;99.90;;;;;;10466167;28;20215;-72
2023/05/05 23:42:44;;;;;;;8.07;5.10;;;15.50;99.90;;;;;;10473653;28;20220;-71
2023/05/05 23:47:48;;;;;;;6.47;4.27;;;15.50;99.90;;;;;;10473507;28;20227;-71
2023/05/05 23:52:48;;;;;;;7.80;5.10;;;15.40;99.90;;;;;;10473127;28;20203;-72
2023/05/05 23:57:51;;;;;;;6.80;5.03;;;15.40;99.90;;;;;;10464714;28;20252;-72
